sensor_id;sensor_type;location;lat;lon;timestamp;pressure;altitude;pressure_sealevel;temperature;humidity
77631;BME280;66798;47.370;8.552;2023-03-14T00:02:08;95522.31;;;8.93;86.01
77631;BME280;66798;47.370;8.552;2023-03-14T00:04:34;95526.56;;;8.89;86.03
77631;BME280;66798;47.370;8.552;2023-03-14T00:07:00;95531.53;;;8.91;85.27
77631;BME280;66798;47.370;8.552;2023-03-14T00:09:25;95547.88;;;8.83;85.16
77631;BME280;66798;47.370;8.552;2023-03-14T00:11:53;95548.47;;;8.80;84.33
77631;BME280;66798;47.370;8.552;2023-03-14T00:14:18;95561.72;;;8.64;85.14
77631;BME280;66798;47.370;8.552;2023-03-14T00:16:46;95541.59;;;8.60;83.45
77631;BME280;66798;47.370;8.552;2023-03-14T00:19:12;95542.88;;;8.62;84.71
77631;BME280;66798;47.370;8.552;2023-03-14T00:21:37;95525.88;;;8.60;83.62
77631;BME280;66798;47.370;8.552;2023-03-14T00:24:03;95538.38;;;8.39;83.60
77631;BME280;66798;47.370;8.552;2023-03-14T00:26:28;95520.56;;;8.41;84.65
77631;BME280;66798;47.370;8.552;2023-03-14T00:28:55;95499.91;;;8.34;84.70
77631;BME280;66798;47.370;8.552;2023-03-14T00:31:21;95482.91;;;8.32;84.20
77631;BME280;66798;47.370;8.552;2023-03-14T00:33:46;95454.47;;;8.25;83.82
77631;BME280;66798;47.370;8.552;2023-03-14T00:36:15;95409.06;;;8.11;82.89
77631;BME280;66798;47.370;8.552;2023-03-14T00:38:43;95414.81;;;8.07;82.34
77631;BME280;66798;47.370;8.552;2023-03-14T00:41:12;95408.59;;;8.03;81.69
77631;BME280;66798;47.370;8.552;2023-03-14T00:43:38;95390.59;;;7.97;81.67
77631;BME280;66798;47.370;8.552;2023-03-14T00:46:05;95400.63;;;7.90;80.52
77631;BME280;66798;47.370;8.552;2023-03-14T00:48:31;95402.25;;;7.85;80.55
77631;BME280;66798;47.370;8.552;2023-03-14T00:50:57;95431.16;;;7.75;81.64
77631;BME280;66798;47.370;8.552;2023-03-14T00:53:23;95419.59;;;7.76;81.52
77631;BME280;66798;47.370;8.552;2023-03-14T00:55:49;95418.56;;;7.77;82.00
77631;BME280;66798;47.370;8.552;2023-03-14T00:58:17;95408.31;;;7.81;80.77
77631;BME280;66798;47.370;8.552;2023-03-14T01:00:43;95411.69;;;7.81;80.23
77631;BME280;66798;47.370;8.552;2023-03-14T01:03:10;95404.19;;;7.75;80.85
77631;BME280;66798;47.370;8.552;2023-03-14T01:05:37;95412.31;;;7.73;81.35
77631;BME280;66798;47.370;8.552;2023-03-14T01:08:03;95428.03;;;7.73;81.37
77631;BME280;66798;47.370;8.552;2023-03-14T01:10:29;95421.19;;;7.77;80.21
77631;BME280;66798;47.370;8.552;2023-03-14T01:12:54;95430.59;;;7.78;81.52
77631;BME280;66798;47.370;8.552;2023-03-14T01:15:20;95438.13;;;7.85;79.04
77631;BME280;66798;47.370;8.552;2023-03-14T01:17:46;95432.63;;;7.81;79.95
77631;BME280;66798;47.370;8.552;2023-03-14T01:20:14;95436.38;;;7.75;79.64
77631;BME280;66798;47.370;8.552;2023-03-14T01:22:40;95437.66;;;7.78;79.54
77631;BME280;66798;47.370;8.552;2023-03-14T01:25:12;95437.16;;;7.76;79.66
77631;BME280;66798;47.370;8.552;2023-03-14T01:27:38;95431.97;;;7.71;80.08
77631;BME280;66798;47.370;8.552;2023-03-14T01:30:04;95427.63;;;7.61;80.26
77631;BME280;66798;47.370;8.552;2023-03-14T01:32:30;95428.91;;;7.63;79.32
77631;BME280;66798;47.370;8.552;2023-03-14T01:34:56;95420.28;;;7.63;80.47
77631;BME280;66798;47.370;8.552;2023-03-14T01:37:21;95423.16;;;7.61;79.90
77631;BME280;66798;47.370;8.552;2023-03-14T01:39:47;95406.31;;;7.73;77.98
77631;BME280;66798;47.370;8.552;2023-03-14T01:42:13;95396.81;;;7.77;76.75
77631;BME280;66798;47.370;8.552;2023-03-14T01:44:54;95406.31;;;7.73;77.50
77631;BME280;66798;47.370;8.552;2023-03-14T01:47:20;95412.25;;;7.78;77.41
77631;BME280;66798;47.370;8.552;2023-03-14T01:50:02;95395.28;;;7.76;76.38
77631;BME280;66798;47.370;8.552;2023-03-14T01:52:34;95404.53;;;7.68;77.10
77631;BME280;66798;47.370;8.552;2023-03-14T01:55:15;95391.50;;;7.63;78.10
77631;BME280;66798;47.370;8.552;2023-03-14T01:57:51;95393.88;;;7.59;78.77
77631;BME280;66798;47.370;8.552;2023-03-14T02:00:22;95396.28;;;7.56;78.72
77631;BME280;66798;47.370;8.552;2023-03-14T02:02:56;95373.31;;;7.48;79.69
77631;BME280;66798;47.370;8.552;2023-03-14T02:05:26;95371.72;;;7.52;79.36
77631;BME280;66798;47.370;8.552;2023-03-14T02:07:55;95365.41;;;7.53;79.76
77631;BME280;66798;47.370;8.552;2023-03-14T02:10:28;95344.88;;;7.65;78.25
77631;BME280;66798;47.370;8.552;2023-03-14T02:12:57;95344.88;;;7.65;78.29
77631;BME280;66798;47.370;8.552;2023-03-14T02:15:24;95327.78;;;7.73;77.36
77631;BME280;66798;47.370;8.552;2023-03-14T02:17:51;95337.13;;;7.79;77.35
77631;BME280;66798;47.370;8.552;2023-03-14T02:23:06;95334.75;;;7.82;76.41
77631;BME280;66798;47.370;8.552;2023-03-14T02:25:45;95326.25;;;7.91;76.17
77631;BME280;66798;47.370;8.552;2023-03-14T02:28:14;95310.06;;;7.88;75.98
77631;BME280;66798;47.370;8.552;2023-03-14T02:30:40;95292.16;;;7.96;75.42
77631;BME280;66798;47.370;8.552;2023-03-14T02:33:13;95300.31;;;7.94;75.30
77631;BME280;66798;47.370;8.552;2023-03-14T02:36:04;95295.34;;;7.93;76.64
77631;BME280;66798;47.370;8.552;2023-03-14T02:38:37;95302.38;;;7.97;74.27
77631;BME280;66798;47.370;8.552;2023-03-14T02:41:05;95277.53;;;7.95;74.88
77631;BME280;66798;47.370;8.552;2023-03-14T02:43:31;95289.59;;;7.91;75.73
77631;BME280;66798;47.370;8.552;2023-03-14T02:45:57;95279.06;;;7.96;75.12
77631;BME280;66798;47.370;8.552;2023-03-14T02:48:37;95276.88;;;8.03;74.53
77631;BME280;66798;47.370;8.552;2023-03-14T02:51:05;95259.47;;;7.93;75.74
77631;BME280;66798;47.370;8.552;2023-03-14T02:53:35;95272.06;;;7.91;75.52
77631;BME280;66798;47.370;8.552;2023-03-14T02:56:02;95267.13;;;7.90;74.94
77631;BME280;66798;47.370;8.552;2023-03-14T02:58:28;95271.59;;;7.89;75.04
77631;BME280;66798;47.370;8.552;2023-03-14T03:00:54;95274.34;;;7.98;74.70
77631;BME280;66798;47.370;8.552;2023-03-14T03:03:20;95265.28;;;8.09;73.46
77631;BME280;66798;47.370;8.552;2023-03-14T03:05:54;95262.75;;;8.04;74.15
77631;BME280;66798;47.370;8.552;2023-03-14T03:08:22;95281.56;;;8.06;74.03
77631;BME280;66798;47.370;8.552;2023-03-14T03:10:48;95260.06;;;8.09;73.83
77631;BME280;66798;47.370;8.552;2023-03-14T03:13:14;95267.34;;;8.12;73.50
77631;BME280;66798;47.370;8.552;2023-03-14T03:15:40;95262.25;;;8.21;72.93
77631;BME280;66798;47.370;8.552;2023-03-14T03:18:06;95261.06;;;8.13;74.10
77631;BME280;66798;47.370;8.552;2023-03-14T03:20:32;95258.28;;;8.23;72.48
77631;BME280;66798;47.370;8.552;2023-03-14T03:22:58;95257.69;;;8.26;72.51
77631;BME280;66798;47.370;8.552;2023-03-14T03:25:24;95257.00;;;8.21;72.37
77631;BME280;66798;47.370;8.552;2023-03-14T03:27:49;95263.28;;;8.20;73.08
77631;BME280;66798;47.370;8.552;2023-03-14T03:30:15;95242.84;;;8.22;72.11
77631;BME280;66798;47.370;8.552;2023-03-14T03:32:40;95245.19;;;8.23;72.53
77631;BME280;66798;47.370;8.552;2023-03-14T03:35:06;95220.25;;;8.26;71.85
77631;BME280;66798;47.370;8.552;2023-03-14T03:37:33;95240.34;;;8.30;71.85
77631;BME280;66798;47.370;8.552;2023-03-14T03:39:59;95231.31;;;8.23;72.78
77631;BME280;66798;47.370;8.552;2023-03-14T03:42:26;95229.25;;;8.20;71.67
77631;BME280;66798;47.370;8.552;2023-03-14T03:44:52;95239.66;;;8.25;71.94
77631;BME280;66798;47.370;8.552;2023-03-14T03:47:17;95229.38;;;8.28;71.07
77631;BME280;66798;47.370;8.552;2023-03-14T03:49:42;95221.44;;;8.34;71.97
77631;BME280;66798;47.370;8.552;2023-03-14T03:52:08;95236.66;;;8.32;70.58
77631;BME280;66798;47.370;8.552;2023-03-14T03:54:34;95235.31;;;8.34;70.80
77631;BME280;66798;47.370;8.552;2023-03-14T03:57:00;95205.72;;;8.34;71.17
77631;BME280;66798;47.370;8.552;2023-03-14T03:59:26;95197.75;;;8.25;71.38
77631;BME280;66798;47.370;8.552;2023-03-14T04:01:51;95191.84;;;8.52;68.17
77631;BME280;66798;47.370;8.552;2023-03-14T04:04:17;95212.31;;;8.50;69.81
77631;BME280;66798;47.370;8.552;2023-03-14T04:06:42;95201.63;;;8.46;70.02
77631;BME280;66798;47.370;8.552;2023-03-14T04:09:09;95203.00;;;8.44;69.74
77631;BME280;66798;47.370;8.552;2023-03-14T04:11:35;95192.53;;;8.39;69.96
77631;BME280;66798;47.370;8.552;2023-03-14T04:14:01;95194.38;;;8.38;69.51
77631;BME280;66798;47.370;8.552;2023-03-14T04:16:26;95193.28;;;8.44;69.54
77631;BME280;66798;47.370;8.552;2023-03-14T04:18:52;95168.72;;;8.40;69.86
77631;BME280;66798;47.370;8.552;2023-03-14T04:21:17;95191.53;;;8.40;69.91
77631;BME280;66798;47.370;8.552;2023-03-14T04:23:43;95180.03;;;8.36;69.72
77631;BME280;66798;47.370;8.552;2023-03-14T04:26:09;95183.41;;;8.36;69.93
77631;BME280;66798;47.370;8.552;2023-03-14T04:28:34;95148.47;;;8.27;69.99
77631;BME280;66798;47.370;8.552;2023-03-14T04:31:13;95167.78;;;8.31;69.93
77631;BME280;66798;47.370;8.552;2023-03-14T04:33:39;95161.84;;;8.44;68.25
77631;BME280;66798;47.370;8.552;2023-03-14T04:36:06;95186.84;;;8.37;69.40
77631;BME280;66798;47.370;8.552;2023-03-14T04:38:32;95174.88;;;8.30;69.52
77631;BME280;66798;47.370;8.552;2023-03-14T04:40:59;95168.16;;;8.24;68.88
77631;BME280;66798;47.370;8.552;2023-03-14T04:43:26;95157.59;;;8.29;68.42
77631;BME280;66798;47.370;8.552;2023-03-14T04:45:53;95142.25;;;8.23;68.92
77631;BME280;66798;47.370;8.552;2023-03-14T04:48:19;95142.03;;;8.19;69.33
77631;BME280;66798;47.370;8.552;2023-03-14T04:50:46;95135.84;;;8.15;69.05
77631;BME280;66798;47.370;8.552;2023-03-14T04:53:12;95124.75;;;8.04;69.83
77631;BME280;66798;47.370;8.552;2023-03-14T04:55:37;95117.88;;;8.08;69.49
77631;BME280;66798;47.370;8.552;2023-03-14T04:58:03;95135.28;;;7.99;70.48
77631;BME280;66798;47.370;8.552;2023-03-14T05:00:29;95111.38;;;8.20;68.38
77631;BME280;66798;47.370;8.552;2023-03-14T05:02:54;95129.19;;;8.04;69.79
77631;BME280;66798;47.370;8.552;2023-03-14T05:05:19;95122.75;;;8.15;69.14
77631;BME280;66798;47.370;8.552;2023-03-14T05:07:45;95119.13;;;8.11;68.60
77631;BME280;66798;47.370;8.552;2023-03-14T05:10:10;95110.97;;;8.13;69.49
77631;BME280;66798;47.370;8.552;2023-03-14T05:12:36;95118.38;;;8.24;66.42
77631;BME280;66798;47.370;8.552;2023-03-14T05:15:01;95106.09;;;8.25;67.05
77631;BME280;66798;47.370;8.552;2023-03-14T05:17:27;95086.94;;;8.24;67.05
77631;BME280;66798;47.370;8.552;2023-03-14T05:19:52;95082.25;;;8.40;65.39
77631;BME280;66798;47.370;8.552;2023-03-14T05:22:18;95091.22;;;8.34;66.11
77631;BME280;66798;47.370;8.552;2023-03-14T05:24:43;95106.41;;;8.37;65.49
77631;BME280;66798;47.370;8.552;2023-03-14T05:27:09;95077.69;;;8.46;64.64
77631;BME280;66798;47.370;8.552;2023-03-14T05:29:34;95082.50;;;8.39;65.30
77631;BME280;66798;47.370;8.552;2023-03-14T05:32:00;95072.06;;;8.53;64.02
77631;BME280;66798;47.370;8.552;2023-03-14T05:34:25;95068.19;;;8.50;64.94
77631;BME280;66798;47.370;8.552;2023-03-14T05:36:51;95050.22;;;8.43;65.59
77631;BME280;66798;47.370;8.552;2023-03-14T05:39:16;95051.94;;;8.34;65.02
77631;BME280;66798;47.370;8.552;2023-03-14T05:41:41;95050.28;;;8.24;65.11
77631;BME280;66798;47.370;8.552;2023-03-14T05:44:07;95037.56;;;8.32;65.01
77631;BME280;66798;47.370;8.552;2023-03-14T05:46:32;95039.81;;;8.24;65.12
77631;BME280;66798;47.370;8.552;2023-03-14T05:48:59;95031.19;;;8.24;64.88
77631;BME280;66798;47.370;8.552;2023-03-14T05:51:24;95024.69;;;8.21;64.97
77631;BME280;66798;47.370;8.552;2023-03-14T05:53:50;95019.81;;;8.15;65.16
77631;BME280;66798;47.370;8.552;2023-03-14T05:56:15;95027.00;;;8.23;65.66
77631;BME280;66798;47.370;8.552;2023-03-14T05:58:41;95009.44;;;8.09;65.83
77631;BME280;66798;47.370;8.552;2023-03-14T06:01:07;94997.97;;;8.05;65.64
77631;BME280;66798;47.370;8.552;2023-03-14T06:03:33;95000.72;;;8.14;65.34
77631;BME280;66798;47.370;8.552;2023-03-14T06:05:59;95015.16;;;8.12;65.43
77631;BME280;66798;47.370;8.552;2023-03-14T06:08:25;95008.06;;;8.12;65.64
77631;BME280;66798;47.370;8.552;2023-03-14T06:10:52;95013.22;;;8.17;64.98
77631;BME280;66798;47.370;8.552;2023-03-14T06:13:17;95022.53;;;8.23;64.91
77631;BME280;66798;47.370;8.552;2023-03-14T06:15:43;95021.78;;;8.23;65.00
77631;BME280;66798;47.370;8.552;2023-03-14T06:18:09;95021.56;;;8.19;65.68
77631;BME280;66798;47.370;8.552;2023-03-14T06:20:37;95019.03;;;8.14;65.69
77631;BME280;66798;47.370;8.552;2023-03-14T06:23:06;95022.53;;;8.09;66.35
77631;BME280;66798;47.370;8.552;2023-03-14T06:25:33;95023.88;;;8.07;66.42
77631;BME280;66798;47.370;8.552;2023-03-14T06:27:58;95006.91;;;8.04;66.97
77631;BME280;66798;47.370;8.552;2023-03-14T06:30:24;95015.03;;;8.03;67.00
77631;BME280;66798;47.370;8.552;2023-03-14T06:32:49;95015.75;;;8.08;66.39
77631;BME280;66798;47.370;8.552;2023-03-14T06:35:15;95016.81;;;8.07;66.84
77631;BME280;66798;47.370;8.552;2023-03-14T06:37:41;95022.72;;;7.99;67.76
77631;BME280;66798;47.370;8.552;2023-03-14T06:40:08;95024.84;;;7.97;66.89
77631;BME280;66798;47.370;8.552;2023-03-14T06:42:34;95041.22;;;8.03;67.89
77631;BME280;66798;47.370;8.552;2023-03-14T06:45:00;95030.84;;;7.98;67.95
77631;BME280;66798;47.370;8.552;2023-03-14T06:47:25;95041.13;;;7.94;68.36
77631;BME280;66798;47.370;8.552;2023-03-14T06:49:51;95034.34;;;8.07;65.08
77631;BME280;66798;47.370;8.552;2023-03-14T06:52:16;95032.25;;;8.23;65.62
77631;BME280;66798;47.370;8.552;2023-03-14T06:54:41;95036.50;;;8.19;65.98
77631;BME280;66798;47.370;8.552;2023-03-14T06:57:07;95042.34;;;8.16;66.43
77631;BME280;66798;47.370;8.552;2023-03-14T06:59:32;95047.09;;;8.27;66.37
77631;BME280;66798;47.370;8.552;2023-03-14T07:01:58;95058.88;;;8.58;66.33
77631;BME280;66798;47.370;8.552;2023-03-14T07:04:23;95063.38;;;8.24;68.54
77631;BME280;66798;47.370;8.552;2023-03-14T07:06:49;95076.81;;;8.50;68.20
77631;BME280;66798;47.370;8.552;2023-03-14T07:09:14;95078.56;;;8.97;67.42
77631;BME280;66798;47.370;8.552;2023-03-14T07:11:42;95077.69;;;9.01;67.12
77631;BME280;66798;47.370;8.552;2023-03-14T07:14:09;95087.25;;;9.33;66.29
77631;BME280;66798;47.370;8.552;2023-03-14T07:16:34;95091.72;;;9.92;63.70
77631;BME280;66798;47.370;8.552;2023-03-14T07:19:00;95082.94;;;9.96;63.76
77631;BME280;66798;47.370;8.552;2023-03-14T07:21:26;95096.81;;;11.39;60.26
77631;BME280;66798;47.370;8.552;2023-03-14T07:23:52;95090.94;;;11.95;58.57
77631;BME280;66798;47.370;8.552;2023-03-14T07:26:17;95088.78;;;12.52;54.64
77631;BME280;66798;47.370;8.552;2023-03-14T07:28:43;95092.00;;;11.94;55.74
77631;BME280;66798;47.370;8.552;2023-03-14T07:31:09;95108.88;;;12.10;56.63
77631;BME280;66798;47.370;8.552;2023-03-14T07:33:35;95122.66;;;12.33;55.79
77631;BME280;66798;47.370;8.552;2023-03-14T07:36:01;95113.63;;;12.43;53.43
77631;BME280;66798;47.370;8.552;2023-03-14T07:38:26;95112.78;;;12.98;52.63
77631;BME280;66798;47.370;8.552;2023-03-14T07:41:00;95121.16;;;11.97;55.23
77631;BME280;66798;47.370;8.552;2023-03-14T07:43:26;95119.19;;;10.31;59.49
77631;BME280;66798;47.370;8.552;2023-03-14T07:45:52;95106.34;;;10.69;56.04
77631;BME280;66798;47.370;8.552;2023-03-14T07:48:17;95128.13;;;10.07;58.06
77631;BME280;66798;47.370;8.552;2023-03-14T07:50:43;95124.53;;;9.81;60.29
77631;BME280;66798;47.370;8.552;2023-03-14T07:53:08;95118.03;;;9.78;59.40
77631;BME280;66798;47.370;8.552;2023-03-14T07:55:33;95122.94;;;9.57;59.73
77631;BME280;66798;47.370;8.552;2023-03-14T07:57:59;95122.53;;;9.64;60.65
77631;BME280;66798;47.370;8.552;2023-03-14T08:00:24;95128.03;;;9.53;60.82
77631;BME280;66798;47.370;8.552;2023-03-14T08:02:50;95129.00;;;10.03;60.02
77631;BME280;66798;47.370;8.552;2023-03-14T08:05:15;95136.69;;;9.54;60.93
77631;BME280;66798;47.370;8.552;2023-03-14T08:07:41;95136.28;;;9.61;59.72
77631;BME280;66798;47.370;8.552;2023-03-14T08:10:07;95132.84;;;9.96;59.45
77631;BME280;66798;47.370;8.552;2023-03-14T08:12:33;95138.81;;;10.11;60.03
77631;BME280;66798;47.370;8.552;2023-03-14T08:14:59;95129.94;;;9.84;60.16
77631;BME280;66798;47.370;8.552;2023-03-14T08:17:25;95134.75;;;10.05;59.98
77631;BME280;66798;47.370;8.552;2023-03-14T08:19:50;95142.91;;;10.48;59.13
77631;BME280;66798;47.370;8.552;2023-03-14T08:22:15;95146.44;;;10.21;58.78
77631;BME280;66798;47.370;8.552;2023-03-14T08:24:41;95138.81;;;10.11;58.48
77631;BME280;66798;47.370;8.552;2023-03-14T08:27:07;95137.38;;;9.82;60.30
77631;BME280;66798;47.370;8.552;2023-03-14T08:29:32;95145.69;;;10.20;60.07
77631;BME280;66798;47.370;8.552;2023-03-14T08:31:58;95131.84;;;9.33;62.47
77631;BME280;66798;47.370;8.552;2023-03-14T08:34:23;95137.34;;;9.60;61.61
77631;BME280;66798;47.370;8.552;2023-03-14T08:36:48;95114.91;;;10.21;60.10
77631;BME280;66798;47.370;8.552;2023-03-14T08:39:14;95105.91;;;9.91;60.92
77631;BME280;66798;47.370;8.552;2023-03-14T08:41:39;95120.66;;;9.78;60.52
77631;BME280;66798;47.370;8.552;2023-03-14T08:44:10;95113.50;;;9.92;59.85
77631;BME280;66798;47.370;8.552;2023-03-14T08:46:37;95123.28;;;10.23;59.61
77631;BME280;66798;47.370;8.552;2023-03-14T08:49:03;95126.03;;;9.95;60.71
77631;BME280;66798;47.370;8.552;2023-03-14T08:51:28;95126.63;;;10.15;60.48
77631;BME280;66798;47.370;8.552;2023-03-14T08:53:54;95138.06;;;10.41;59.97
77631;BME280;66798;47.370;8.552;2023-03-14T08:56:19;95136.38;;;10.68;60.09
77631;BME280;66798;47.370;8.552;2023-03-14T08:58:44;95136.97;;;10.65;59.13
77631;BME280;66798;47.370;8.552;2023-03-14T09:01:10;95154.75;;;10.99;58.80
77631;BME280;66798;47.370;8.552;2023-03-14T09:03:37;95136.25;;;10.82;58.55
77631;BME280;66798;47.370;8.552;2023-03-14T09:06:05;95151.88;;;10.78;58.57
77631;BME280;66798;47.370;8.552;2023-03-14T09:08:31;95153.56;;;10.74;59.31
77631;BME280;66798;47.370;8.552;2023-03-14T09:10:56;95160.53;;;10.79;60.51
77631;BME280;66798;47.370;8.552;2023-03-14T09:13:22;95150.78;;;10.71;59.52
77631;BME280;66798;47.370;8.552;2023-03-14T09:15:52;95153.13;;;10.27;60.35
77631;BME280;66798;47.370;8.552;2023-03-14T09:18:17;95149.19;;;10.38;61.13
77631;BME280;66798;47.370;8.552;2023-03-14T09:20:43;95146.34;;;10.49;60.53
77631;BME280;66798;47.370;8.552;2023-03-14T09:23:08;95150.94;;;10.74;60.45
77631;BME280;66798;47.370;8.552;2023-03-14T09:25:34;95143.13;;;11.00;60.14
77631;BME280;66798;47.370;8.552;2023-03-14T09:27:59;95153.75;;;10.87;59.16
77631;BME280;66798;47.370;8.552;2023-03-14T09:30:25;95150.31;;;11.09;59.72
77631;BME280;66798;47.370;8.552;2023-03-14T09:32:50;95168.31;;;11.41;58.81
77631;BME280;66798;47.370;8.552;2023-03-14T09:35:15;95161.66;;;11.44;58.88
77631;BME280;66798;47.370;8.552;2023-03-14T09:37:41;95156.88;;;11.37;57.69
77631;BME280;66798;47.370;8.552;2023-03-14T09:40:12;95158.41;;;11.38;59.06
77631;BME280;66798;47.370;8.552;2023-03-14T09:42:38;95171.56;;;11.38;59.44
77631;BME280;66798;47.370;8.552;2023-03-14T09:45:16;95170.72;;;11.86;57.98
77631;BME280;66798;47.370;8.552;2023-03-14T09:47:45;95165.78;;;12.02;56.45
77631;BME280;66798;47.370;8.552;2023-03-14T09:50:14;95170.22;;;11.84;56.98
77631;BME280;66798;47.370;8.552;2023-03-14T09:52:45;95173.47;;;11.46;57.47
77631;BME280;66798;47.370;8.552;2023-03-14T09:55:16;95161.50;;;12.62;55.63
77631;BME280;66798;47.370;8.552;2023-03-14T09:57:45;95179.22;;;12.53;55.88
77631;BME280;66798;47.370;8.552;2023-03-14T10:00:19;95177.44;;;12.74;54.82
77631;BME280;66798;47.370;8.552;2023-03-14T10:02:53;95186.00;;;12.63;55.86
77631;BME280;66798;47.370;8.552;2023-03-14T10:05:22;95187.31;;;12.22;56.22
77631;BME280;66798;47.370;8.552;2023-03-14T10:07:47;95203.72;;;11.75;57.18
77631;BME280;66798;47.370;8.552;2023-03-14T10:10:17;95204.91;;;11.60;57.33
77631;BME280;66798;47.370;8.552;2023-03-14T10:12:47;95213.72;;;11.47;58.50
77631;BME280;66798;47.370;8.552;2023-03-14T10:15:15;95197.34;;;11.10;58.59
77631;BME280;66798;47.370;8.552;2023-03-14T10:17:48;95220.19;;;10.92;59.59
77631;BME280;66798;47.370;8.552;2023-03-14T10:21:00;95230.16;;;10.81;60.30
77631;BME280;66798;47.370;8.552;2023-03-14T10:23:30;95227.03;;;10.48;62.78
77631;BME280;66798;47.370;8.552;2023-03-14T10:26:12;95222.38;;;10.23;64.10
77631;BME280;66798;47.370;8.552;2023-03-14T10:28:43;95233.09;;;9.98;64.75
77631;BME280;66798;47.370;8.552;2023-03-14T10:31:10;95245.13;;;9.77;67.68
77631;BME280;66798;47.370;8.552;2023-03-14T10:33:37;95231.78;;;9.87;66.73
77631;BME280;66798;47.370;8.552;2023-03-14T10:39:45;95236.59;;;10.08;67.25
77631;BME280;66798;47.370;8.552;2023-03-14T10:44:54;95252.63;;;10.56;68.25
77631;BME280;66798;47.370;8.552;2023-03-14T10:47:24;95257.69;;;10.75;63.70
77631;BME280;66798;47.370;8.552;2023-03-14T10:49:51;95278.03;;;10.61;65.28
77631;BME280;66798;47.370;8.552;2023-03-14T10:52:21;95275.56;;;9.92;68.20
77631;BME280;66798;47.370;8.552;2023-03-14T10:54:55;95281.38;;;10.03;69.63
77631;BME280;66798;47.370;8.552;2023-03-14T10:57:22;95290.75;;;10.31;67.67
77631;BME280;66798;47.370;8.552;2023-03-14T10:59:47;95298.38;;;10.05;69.67
77631;BME280;66798;47.370;8.552;2023-03-14T11:07:42;95305.50;;;9.22;71.55
77631;BME280;66798;47.370;8.552;2023-03-14T11:16:02;95351.19;;;8.50;76.44
77631;BME280;66798;47.370;8.552;2023-03-14T11:24:49;95353.97;;;7.73;75.31
77631;BME280;66798;47.370;8.552;2023-03-14T11:33:13;95386.72;;;7.41;77.40
77631;BME280;66798;47.370;8.552;2023-03-14T11:35:59;95410.25;;;7.41;76.69
77631;BME280;66798;47.370;8.552;2023-03-14T11:38:34;95433.38;;;7.29;77.62
77631;BME280;66798;47.370;8.552;2023-03-14T11:41:09;95405.81;;;7.07;76.95
77631;BME280;66798;47.370;8.552;2023-03-14T11:43:39;95439.25;;;7.15;78.54
77631;BME280;66798;47.370;8.552;2023-03-14T11:46:21;95423.88;;;7.09;77.92
77631;BME280;66798;47.370;8.552;2023-03-14T11:49:01;95417.81;;;7.13;77.21
77631;BME280;66798;47.370;8.552;2023-03-14T11:51:36;95424.88;;;7.13;77.05
77631;BME280;66798;47.370;8.552;2023-03-14T11:54:14;95440.56;;;7.13;79.27
77631;BME280;66798;47.370;8.552;2023-03-14T11:57:01;95448.09;;;7.19;76.78
77631;BME280;66798;47.370;8.552;2023-03-14T12:02:27;95444.97;;;7.17;76.29
77631;BME280;66798;47.370;8.552;2023-03-14T12:05:25;95479.59;;;7.04;77.80
77631;BME280;66798;47.370;8.552;2023-03-14T12:10:46;95456.94;;;6.89;75.35
77631;BME280;66798;47.370;8.552;2023-03-14T12:13:15;95462.13;;;6.94;75.84
77631;BME280;66798;47.370;8.552;2023-03-14T12:15:49;95468.22;;;7.19;74.83
77631;BME280;66798;47.370;8.552;2023-03-14T12:18:21;95470.63;;;7.10;75.17
77631;BME280;66798;47.370;8.552;2023-03-14T12:20:58;95475.34;;;7.48;74.88
77631;BME280;66798;47.370;8.552;2023-03-14T12:23:27;95482.78;;;7.64;72.42
77631;BME280;66798;47.370;8.552;2023-03-14T12:28:37;95498.84;;;7.53;72.29
77631;BME280;66798;47.370;8.552;2023-03-14T12:34:29;95536.28;;;7.53;72.79
77631;BME280;66798;47.370;8.552;2023-03-14T12:37:04;95536.59;;;7.47;71.51
77631;BME280;66798;47.370;8.552;2023-03-14T12:39:41;95552.63;;;7.35;73.94
77631;BME280;66798;47.370;8.552;2023-03-14T12:42:19;95572.25;;;7.32;74.74
77631;BME280;66798;47.370;8.552;2023-03-14T12:44:49;95574.91;;;7.27;74.90
77631;BME280;66798;47.370;8.552;2023-03-14T12:49:48;95575.53;;;7.53;70.71
77631;BME280;66798;47.370;8.552;2023-03-14T12:52:42;95592.47;;;7.61;69.32
77631;BME280;66798;47.370;8.552;2023-03-14T12:55:22;95594.91;;;7.47;70.62
77631;BME280;66798;47.370;8.552;2023-03-14T12:58:06;95631.53;;;7.47;72.37
77631;BME280;66798;47.370;8.552;2023-03-14T13:00:35;95621.19;;;7.21;73.73
77631;BME280;66798;47.370;8.552;2023-03-14T13:03:19;95651.16;;;6.85;75.50
77631;BME280;66798;47.370;8.552;2023-03-14T13:06:00;95646.47;;;6.71;76.66
77631;BME280;66798;47.370;8.552;2023-03-14T13:10:58;95656.19;;;6.55;78.94
77631;BME280;66798;47.370;8.552;2023-03-14T13:13:25;95656.69;;;6.52;78.34
77631;BME280;66798;47.370;8.552;2023-03-14T13:15:57;95660.88;;;6.43;78.22
77631;BME280;66798;47.370;8.552;2023-03-14T13:18:41;95664.81;;;6.51;79.33
77631;BME280;66798;47.370;8.552;2023-03-14T13:21:14;95666.88;;;6.64;79.99
77631;BME280;66798;47.370;8.552;2023-03-14T13:23:54;95673.41;;;6.67;78.41
77631;BME280;66798;47.370;8.552;2023-03-14T13:26:20;95682.75;;;6.98;78.11
77631;BME280;66798;47.370;8.552;2023-03-14T13:28:46;95687.91;;;7.14;76.36
77631;BME280;66798;47.370;8.552;2023-03-14T13:31:22;95695.91;;;7.43;75.21
77631;BME280;66798;47.370;8.552;2023-03-14T13:34:06;95697.94;;;7.61;75.10
77631;BME280;66798;47.370;8.552;2023-03-14T13:36:35;95703.75;;;7.98;74.38
77631;BME280;66798;47.370;8.552;2023-03-14T13:39:01;95725.16;;;8.05;74.79
77631;BME280;66798;47.370;8.552;2023-03-14T13:41:28;95726.84;;;8.30;73.25
77631;BME280;66798;47.370;8.552;2023-03-14T13:44:18;95723.41;;;8.40;71.00
77631;BME280;66798;47.370;8.552;2023-03-14T13:46:47;95713.63;;;8.11;71.40
77631;BME280;66798;47.370;8.552;2023-03-14T13:49:23;95716.25;;;8.11;70.85
77631;BME280;66798;47.370;8.552;2023-03-14T13:51:50;95712.41;;;7.93;69.94
77631;BME280;66798;47.370;8.552;2023-03-14T13:54:19;95722.31;;;8.01;69.94
77631;BME280;66798;47.370;8.552;2023-03-14T13:56:45;95721.69;;;8.15;69.15
77631;BME280;66798;47.370;8.552;2023-03-14T13:59:22;95713.16;;;8.04;68.92
77631;BME280;66798;47.370;8.552;2023-03-14T14:01:47;95724.50;;;8.28;68.80
77631;BME280;66798;47.370;8.552;2023-03-14T14:04:17;95727.59;;;8.36;68.92